createdAt,value
2022-11-28T00:01:25.203Z,96944.94
2022-11-28T00:03:52.320Z,96943.03
2022-11-28T00:06:21.731Z,96939.56
2022-11-28T00:08:48.565Z,96937.22
2022-11-28T00:11:16.717Z,96931.75
2022-11-28T00:13:46.640Z,96927.91
2022-11-28T00:16:16.532Z,96921.84
2022-11-28T00:18:43.222Z,96916.91
2022-11-28T00:21:14.393Z,96912.28
2022-11-28T00:23:46.324Z,96914.56
2022-11-28T00:26:22.779Z,96918.03
2022-11-28T00:28:49.505Z,96908.78
2022-11-28T00:31:19.362Z,96914.91
2022-11-28T00:33:46.418Z,96914.16
2022-11-28T00:36:14.194Z,96911.03
2022-11-28T00:38:47.745Z,96916.34
2022-11-28T00:41:21.048Z,96912.94
2022-11-28T00:43:48.581Z,96908.34
2022-11-28T00:46:20.705Z,96906.50
2022-11-28T00:48:47.423Z,96912.63
2022-11-28T00:51:19.912Z,96910.38
2022-11-28T00:53:48.393Z,96913.06
2022-11-28T00:56:17.944Z,96912.28
2022-11-28T00:58:49.801Z,96897.72
2022-11-28T01:01:27.885Z,96895.00
2022-11-28T01:03:56.711Z,96899.22
2022-11-28T01:06:45.037Z,96896.16
2022-11-28T01:09:14.873Z,96906.16
2022-11-28T01:11:44.726Z,96901.19
2022-11-28T01:14:12.154Z,96895.78
2022-11-28T01:16:41.674Z,96897.31
2022-11-28T01:19:08.469Z,96899.63
2022-11-28T01:21:35.641Z,96896.94
2022-11-28T01:24:04.915Z,96895.03
2022-11-28T01:26:31.454Z,96890.47
2022-11-28T01:29:00.448Z,96887.81
2022-11-28T01:31:29.528Z,96902.38
2022-11-28T01:33:57.351Z,96904.72
2022-11-28T01:36:24.575Z,96897.03
2022-11-28T01:38:51.589Z,96890.50
2022-11-28T01:41:23.725Z,96884.00
2022-11-28T01:44:23.182Z,96887.81
2022-11-28T01:46:54.879Z,96891.66
2022-11-28T01:49:31.598Z,96888.25
2022-11-28T01:52:03.224Z,96892.84
2022-11-28T01:54:33.748Z,96888.63
2022-11-28T01:57:11.018Z,96897.09
2022-11-28T01:59:44.819Z,96882.09
2022-11-28T02:02:18.561Z,96883.66
2022-11-28T02:04:46.657Z,96873.69
2022-11-28T02:07:14.122Z,96877.13
2022-11-28T02:09:40.699Z,96870.63
2022-11-28T02:12:25.605Z,96869.06
2022-11-28T02:15:04.317Z,96856.81
2022-11-28T02:18:08.542Z,96858.72
2022-11-28T02:20:47.209Z,96852.59
2022-11-28T02:23:42.153Z,96848.78
2022-11-28T02:26:27.684Z,96850.28
2022-11-28T02:29:15.611Z,96851.06
2022-11-28T02:32:06.692Z,96840.72
2022-11-28T02:34:49.256Z,96845.69
2022-11-28T02:37:22.916Z,96846.09
2022-11-28T02:40:04.783Z,96839.94
2022-11-28T02:42:56.543Z,96830.31
2022-11-28T02:45:40.545Z,96836.09
2022-11-28T02:48:23.033Z,96823.44
2022-11-28T02:50:59.735Z,96830.34
2022-11-28T02:53:31.079Z,96826.13
2022-11-28T02:55:59.179Z,96815.00
2022-11-28T02:58:25.745Z,96820.75
2022-11-28T03:00:55.609Z,96815.38
2022-11-28T03:03:43.868Z,96813.47
2022-11-28T03:06:30.301Z,96808.84
2022-11-28T03:09:15.559Z,96813.06
2022-11-28T03:12:03.688Z,96811.94
2022-11-28T03:14:48.030Z,96810.38
2022-11-28T03:17:26.991Z,96812.31
2022-11-28T03:20:03.886Z,96808.84
2022-11-28T03:22:44.846Z,96805.03
2022-11-28T03:25:37.694Z,96801.94
2022-11-28T03:28:27.004Z,96798.47
2022-11-28T03:31:02.386Z,96795.78
2022-11-28T03:33:34.985Z,96804.63
2022-11-28T03:36:13.797Z,96790.41
2022-11-28T03:38:47.405Z,96793.09
2022-11-28T03:41:19.207Z,96788.50
2022-11-28T03:43:55.558Z,96789.69
2022-11-28T03:46:27.853Z,96787.72
2022-11-28T03:48:59.126Z,96788.50
2022-11-28T03:51:36.263Z,96797.34
2022-11-28T03:54:13.505Z,96788.91
2022-11-28T03:56:55.691Z,96788.53
2022-11-28T03:59:28.949Z,96784.28
2022-11-28T04:02:10.607Z,96783.91
2022-11-28T04:04:56.465Z,96790.03
2022-11-28T04:07:26.001Z,96785.81
2022-11-28T04:10:09.187Z,96791.56
2022-11-28T04:13:08.152Z,96786.22
2022-11-28T04:16:05.900Z,96783.91
2022-11-28T04:18:47.012Z,96787.34
2022-11-28T04:21:26.754Z,96783.91
2022-11-28T04:24:00.164Z,96777.38
2022-11-28T04:26:36.776Z,96780.84
2022-11-28T04:29:10.502Z,96781.22
2022-11-28T04:31:39.577Z,96777.75
2022-11-28T04:34:10.139Z,96780.44
2022-11-28T04:36:40.396Z,96775.06
2022-11-28T04:39:12.611Z,96777.00
2022-11-28T04:41:48.422Z,96774.31
2022-11-28T04:44:46.729Z,96785.44
2022-11-28T04:47:15.453Z,96779.69
2022-11-28T04:49:42.267Z,96773.91
2022-11-28T04:52:29.481Z,96767.00
2022-11-28T04:55:28.542Z,96771.22
2022-11-28T04:58:05.160Z,96775.06
2022-11-28T05:00:35.431Z,96770.84
2022-11-28T05:03:04.956Z,96765.09
2022-11-28T05:05:31.592Z,96758.94
2022-11-28T05:07:59.627Z,96762.41
2022-11-28T05:10:30.831Z,96767.78
2022-11-28T05:12:59.580Z,96770.06
2022-11-28T05:15:31.046Z,96767.41
2022-11-28T05:18:00.084Z,96756.66
2022-11-28T05:20:27.321Z,96756.28
2022-11-28T05:22:58.733Z,96762.41
2022-11-28T05:25:27.507Z,96759.72
2022-11-28T05:27:54.210Z,96762.03
2022-11-28T05:30:23.110Z,96771.22
2022-11-28T05:32:52.236Z,96768.53
2022-11-28T05:35:18.771Z,96771.22
2022-11-28T05:37:45.332Z,96768.16
2022-11-28T05:40:12.319Z,96771.63
2022-11-28T05:42:43.595Z,96779.31
2022-11-28T05:45:10.234Z,96774.69
2022-11-28T05:47:36.766Z,96774.69
2022-11-28T05:50:06.040Z,96780.06
2022-11-28T05:52:37.351Z,96770.47
2022-11-28T05:55:06.633Z,96780.84
2022-11-28T05:57:33.197Z,96783.91
2022-11-28T05:59:59.966Z,96769.69
2022-11-28T06:02:26.671Z,96769.31
2022-11-28T06:04:53.340Z,96754.34
2022-11-28T06:07:20.117Z,96750.50
2022-11-28T06:09:46.877Z,96756.28
2022-11-28T06:12:13.637Z,96757.03
2022-11-28T06:14:40.403Z,96759.34
2022-11-28T06:17:09.286Z,96752.41
2022-11-28T06:19:35.952Z,96749.50
2022-11-28T06:22:02.451Z,96756.72
2022-11-28T06:24:31.515Z,96753.69
2022-11-28T06:26:58.049Z,96753.84
2022-11-28T06:29:28.023Z,96757.38
2022-11-28T06:31:57.703Z,96761.59
2022-11-28T06:34:27.511Z,96760.84
2022-11-28T06:36:56.332Z,96763.53
2022-11-28T06:39:22.830Z,96763.16
2022-11-28T06:41:49.469Z,96771.25
2022-11-28T06:44:18.224Z,96774.69
2022-11-28T06:46:49.875Z,96767.03
2022-11-28T06:49:16.361Z,96758.19
2022-11-28T06:51:43.156Z,96758.19
2022-11-28T06:54:12.032Z,96755.88
2022-11-28T06:56:41.509Z,96762.03
2022-11-28T06:59:14.723Z,96762.03
2022-11-28T07:01:46.091Z,96773.91
2022-11-28T07:04:12.819Z,96769.69
2022-11-28T07:06:39.406Z,96770.88
2022-11-28T07:09:08.442Z,96765.47
2022-11-28T07:11:34.987Z,96754.72
2022-11-28T07:14:05.780Z,96760.88
2022-11-28T07:16:33.722Z,96766.25
2022-11-28T07:19:00.541Z,96777.00
2022-11-28T07:21:30.766Z,96786.22
2022-11-28T07:23:58.851Z,96789.28
2022-11-28T07:26:30.153Z,96773.91
2022-11-28T07:29:00.058Z,96778.16
2022-11-28T07:31:31.655Z,96783.16
2022-11-28T07:34:02.370Z,96785.06
2022-11-28T07:36:29.125Z,96766.25
2022-11-28T07:38:58.058Z,96770.09
2022-11-28T07:41:28.135Z,96782.75
2022-11-28T07:44:00.150Z,96771.63
2022-11-28T07:46:31.297Z,96775.09
2022-11-28T07:48:57.869Z,96780.44
2022-11-28T07:51:33.126Z,96773.53
2022-11-28T07:54:00.629Z,96770.09
2022-11-28T07:56:50.175Z,96779.69
2022-11-28T07:59:16.716Z,96761.66
2022-11-28T08:01:43.296Z,96772.78
2022-11-28T08:04:12.630Z,96775.47
2022-11-28T08:06:41.174Z,96768.56
2022-11-28T08:09:12.525Z,96774.31
2022-11-28T08:11:41.830Z,96778.56
2022-11-28T08:14:08.391Z,96772.78
2022-11-28T08:16:36.677Z,96775.84
2022-11-28T08:19:07.747Z,96779.28
2022-11-28T08:21:35.484Z,96785.81
2022-11-28T08:24:05.783Z,96787.34
2022-11-28T08:26:32.980Z,96783.91
2022-11-28T08:29:00.859Z,96786.19
2022-11-28T08:31:31.553Z,96774.28
2022-11-28T08:34:02.314Z,96772.72
2022-11-28T08:36:31.921Z,96766.19
2022-11-28T08:39:22.932Z,96760.00
2022-11-28T08:41:51.930Z,96752.69
2022-11-28T08:44:23.331Z,96759.59
2022-11-28T08:46:52.354Z,96755.34
2022-11-28T08:49:21.099Z,96744.94
2022-11-28T08:51:47.674Z,96743.00
2022-11-28T08:54:14.189Z,96747.97
2022-11-28T08:56:40.752Z,96743.75
2022-11-28T08:59:07.351Z,96744.47
2022-11-28T09:01:34.542Z,96737.09
2022-11-28T09:04:06.237Z,96745.94
2022-11-28T09:06:34.988Z,96744.03
2022-11-28T09:09:03.868Z,96744.41
2022-11-28T09:11:30.707Z,96743.22
2022-11-28T09:13:57.273Z,96739.69
2022-11-28T09:16:25.941Z,96733.53
2022-11-28T09:18:52.461Z,96742.44
2022-11-28T09:21:21.706Z,96736.25
2022-11-28T09:23:50.548Z,96737.34
2022-11-28T09:26:22.824Z,96744.56
2022-11-28T09:28:54.166Z,96726.75
2022-11-28T09:31:21.127Z,96731.72
2022-11-28T09:33:50.336Z,96728.56
2022-11-28T09:36:22.166Z,96734.25
2022-11-28T09:38:51.508Z,96739.25
2022-11-28T09:41:26.462Z,96726.53
2022-11-28T09:44:02.289Z,96732.22
2022-11-28T09:46:38.429Z,96731.44
2022-11-28T09:49:23.275Z,96730.28
2022-11-28T09:52:01.269Z,96726.72
2022-11-28T09:54:27.846Z,96725.47
2022-11-28T09:56:54.505Z,96723.72
2022-11-28T09:59:29.990Z,96725.09
2022-11-28T10:01:56.421Z,96732.31
2022-11-28T10:04:39.026Z,96718.31
2022-11-28T10:07:51.051Z,96724.38
2022-11-28T10:10:35.901Z,96716.91
2022-11-28T10:13:20.816Z,96723.22
2022-11-28T10:16:10.132Z,96716.78
2022-11-28T10:18:50.959Z,96713.00
2022-11-28T10:21:39.379Z,96708.06
2022-11-28T10:24:47.866Z,96710.59
2022-11-28T10:27:22.459Z,96710.91
2022-11-28T10:29:58.084Z,96706.25
2022-11-28T10:32:36.755Z,96711.66
2022-11-28T10:35:06.501Z,96706.25
2022-11-28T10:37:39.553Z,96707.44
2022-11-28T10:40:17.901Z,96698.13
2022-11-28T10:43:11.574Z,96696.81
2022-11-28T10:45:55.731Z,96693.53
2022-11-28T10:48:51.773Z,96691.59
2022-11-28T10:51:52.292Z,96685.44
2022-11-28T10:54:43.345Z,96682.81
2022-11-28T10:57:17.506Z,96682.31
2022-11-28T11:00:06.712Z,96682.69
2022-11-28T11:02:51.562Z,96669.13
2022-11-28T11:05:24.393Z,96671.38
2022-11-28T11:08:12.211Z,96672.50
2022-11-28T11:10:49.089Z,96666.63
2022-11-28T11:13:28.573Z,96654.66
2022-11-28T11:16:01.156Z,96648.44
2022-11-28T11:18:34.631Z,96648.03
2022-11-28T11:21:09.590Z,96646.75
2022-11-28T11:23:38.403Z,96640.75
2022-11-28T11:26:10.402Z,96643.66
2022-11-28T11:28:44.309Z,96637.84
2022-11-28T11:31:16.118Z,96646.88
2022-11-28T11:33:45.360Z,96642.94
2022-11-28T11:36:29.710Z,96635.47
2022-11-28T11:39:05.559Z,96640.13
2022-11-28T11:41:33.051Z,96644.41
2022-11-28T11:44:17.301Z,96631.59
2022-11-28T11:47:22.273Z,96632.28
2022-11-28T11:50:02.105Z,96632.66
2022-11-28T11:52:31.754Z,96636.63
2022-11-28T11:54:58.237Z,96627.09
2022-11-28T11:57:33.639Z,96622.31
2022-11-28T12:00:12.044Z,96616.34
2022-11-28T12:03:06.833Z,96624.09
2022-11-28T12:06:13.165Z,96626.91
2022-11-28T12:08:49.099Z,96622.84
2022-11-28T12:11:23.475Z,96625.09
2022-11-28T12:13:51.438Z,96622.81
2022-11-28T12:16:52.663Z,96624.66
2022-11-28T12:19:29.078Z,96628.97
2022-11-28T12:22:04.774Z,96625.44
2022-11-28T12:24:49.091Z,96622.63
2022-11-28T12:27:15.735Z,96625.75
2022-11-28T12:30:21.875Z,96622.09
2022-11-28T12:33:14.136Z,96619.00
2022-11-28T12:35:46.070Z,96617.38
2022-11-28T12:38:55.299Z,96618.06
2022-11-28T12:41:47.478Z,96614.63
2022-11-28T12:44:37.243Z,96617.69
2022-11-28T12:47:25.263Z,96607.53
2022-11-28T12:49:54.868Z,96608.69
2022-11-28T12:52:40.135Z,96606.00
2022-11-28T12:55:27.212Z,96608.28
2022-11-28T12:58:15.803Z,96609.72
2022-11-28T13:01:04.340Z,96607.06
2022-11-28T13:04:04.427Z,96601.25
2022-11-28T13:07:08.269Z,96595.91
2022-11-28T13:09:38.636Z,96597.41
2022-11-28T13:12:17.352Z,96596.66
2022-11-28T13:14:54.977Z,96593.31
2022-11-28T13:17:36.677Z,96594.13
2022-11-28T13:20:12.415Z,96592.66
2022-11-28T13:22:50.810Z,96595.50
2022-11-28T13:25:45.265Z,96586.66
2022-11-28T13:28:32.232Z,96589.38
2022-11-28T13:31:19.115Z,96586.66
2022-11-28T13:33:54.481Z,96587.06
2022-11-28T13:39:46.589Z,96581.09
2022-11-28T13:42:52.383Z,96589.25
2022-11-28T13:45:22.793Z,96592.31
2022-11-28T13:47:55.766Z,96591.16
2022-11-28T13:50:24.715Z,96596.88
2022-11-28T13:53:22.523Z,96594.63
2022-11-28T13:55:51.862Z,96593.50
2022-11-28T13:58:40.399Z,96595.44
2022-11-28T14:01:09.817Z,96597.75
2022-11-28T14:03:45.782Z,96599.00
2022-11-28T14:06:22.265Z,96596.75
2022-11-28T14:09:04.692Z,96602.53
2022-11-28T14:11:50.107Z,96615.38
2022-11-28T14:14:46.292Z,96608.84
2022-11-28T14:17:51.125Z,96610.44
2022-11-28T14:20:28.765Z,96610.13
2022-11-28T14:23:13.484Z,96613.53
2022-11-28T14:25:45.918Z,96610.06
2022-11-28T14:28:19.889Z,96615.53
2022-11-28T14:30:52.333Z,96620.16
2022-11-28T14:33:40.108Z,96616.69
2022-11-28T14:36:23.887Z,96619.81
2022-11-28T14:39:32.012Z,96624.88
2022-11-28T14:42:04.415Z,96630.34
2022-11-28T14:44:52.558Z,96631.44
2022-11-28T14:47:24.144Z,96623.06
2022-11-28T14:50:08.653Z,96627.28
2022-11-28T14:52:52.665Z,96622.25
2022-11-28T14:55:21.757Z,96623.81
2022-11-28T14:57:53.575Z,96630.34
2022-11-28T15:00:47.462Z,96623.78
2022-11-28T15:03:29.166Z,96628.41
2022-11-28T15:06:13.476Z,96626.88
2022-11-28T15:09:02.439Z,96628.06
2022-11-28T15:11:46.344Z,96625.78
2022-11-28T15:14:22.349Z,96622.34
2022-11-28T15:16:53.213Z,96615.47
2022-11-28T15:19:35.703Z,96620.50
2022-11-28T15:22:04.916Z,96618.59
2022-11-28T15:24:38.107Z,96623.25
2022-11-28T15:27:07.810Z,96628.63
2022-11-28T15:29:35.945Z,96624.47
2022-11-28T15:32:02.832Z,96633.75
2022-11-28T15:34:30.956Z,96633.38
2022-11-28T15:37:00.839Z,96633.78
2022-11-28T15:39:39.969Z,96629.53
2022-11-28T15:42:15.919Z,96631.91
2022-11-28T15:44:45.785Z,96631.47
2022-11-28T15:47:20.697Z,96639.22
2022-11-28T15:49:59.643Z,96638.88
2022-11-28T15:52:28.723Z,96637.34
2022-11-28T15:54:55.311Z,96634.28
2022-11-28T15:57:25.944Z,96624.25
2022-11-28T15:59:54.837Z,96634.28
2022-11-28T16:02:34.009Z,96633.13
2022-11-28T16:05:09.450Z,96637.75
2022-11-28T16:07:41.236Z,96642.75
2022-11-28T16:10:21.102Z,96639.28
2022-11-28T16:12:48.362Z,96644.28
2022-11-28T16:15:23.691Z,96645.47
2022-11-28T16:17:50.674Z,96648.16
2022-11-28T16:20:33.516Z,96638.91
2022-11-28T16:23:17.716Z,96639.66
2022-11-28T16:25:49.037Z,96648.53
2022-11-28T16:28:32.470Z,96647.38
2022-11-28T16:31:01.333Z,96641.97
2022-11-28T16:33:47.787Z,96642.38
2022-11-28T16:36:36.395Z,96641.22
2022-11-28T16:39:07.576Z,96647.78
2022-11-28T16:41:34.152Z,96648.97
2022-11-28T16:44:07.347Z,96640.53
2022-11-28T16:46:38.248Z,96648.63
2022-11-28T16:49:08.206Z,96640.94
2022-11-28T16:51:40.059Z,96647.84
2022-11-28T16:54:30.025Z,96650.94
2022-11-28T16:57:10.410Z,96643.25
2022-11-28T16:59:39.334Z,96646.34
2022-11-28T17:02:13.467Z,96642.88
2022-11-28T17:04:42.953Z,96648.69
2022-11-28T17:07:16.230Z,96649.50
2022-11-28T17:09:44.699Z,96651.94
2022-11-28T17:12:23.876Z,96654.28
2022-11-28T17:14:52.970Z,96658.50
2022-11-28T17:17:23.463Z,96655.81
2022-11-28T17:19:53.586Z,96656.22
2022-11-28T17:22:27.954Z,96660.03
2022-11-28T17:24:59.795Z,96661.97
2022-11-28T17:27:31.084Z,96665.56
2022-11-28T17:29:58.089Z,96668.25
2022-11-28T17:32:26.811Z,96666.28
2022-11-28T17:34:53.448Z,96665.09
2022-11-28T17:37:24.554Z,96668.16
2022-11-28T17:40:22.937Z,96672.78
2022-11-28T17:42:51.985Z,96664.69
2022-11-28T17:45:24.401Z,96675.06
2022-11-28T17:47:51.194Z,96673.91
2022-11-28T17:50:17.856Z,96674.25
2022-11-28T17:52:44.419Z,96672.31
2022-11-28T17:55:11.016Z,96671.13
2022-11-28T17:57:37.780Z,96667.25
2022-11-28T18:00:06.869Z,96667.63
2022-11-28T18:02:33.605Z,96673.03
2022-11-28T18:05:00.539Z,96679.13
2022-11-28T18:07:30.039Z,96683.38
2022-11-28T18:09:56.598Z,96681.44
2022-11-28T18:12:25.393Z,96684.13
2022-11-28T18:14:51.915Z,96688.00
2022-11-28T18:17:21.463Z,96687.97
2022-11-28T18:19:48.009Z,96687.19
2022-11-28T18:22:16.927Z,96679.09
2022-11-28T18:24:45.912Z,96679.50
2022-11-28T18:27:14.933Z,96681.44
2022-11-28T18:29:41.820Z,96684.91
2022-11-28T18:32:08.661Z,96682.59
2022-11-28T18:34:35.251Z,96680.66
2022-11-28T18:37:03.853Z,96685.69
2022-11-28T18:39:34.054Z,96683.41
2022-11-28T18:42:01.777Z,96685.34
2022-11-28T18:44:28.384Z,96691.84
2022-11-28T18:46:54.943Z,96691.53
2022-11-28T18:49:21.532Z,96689.63
2022-11-28T18:51:50.617Z,96694.31
2022-11-28T18:54:21.172Z,96688.06
2022-11-28T18:56:48.852Z,96684.97
2022-11-28T18:59:17.638Z,96688.44
2022-11-28T19:01:46.737Z,96689.63
2022-11-28T19:04:15.460Z,96690.38
2022-11-28T19:06:45.035Z,96685.69
2022-11-28T19:09:14.598Z,96689.91
2022-11-28T19:11:44.379Z,96684.94
2022-11-28T19:14:15.866Z,96689.59
2022-11-28T19:16:43.541Z,96681.81
2022-11-28T19:19:10.951Z,96688.06
2022-11-28T19:21:38.546Z,96689.16
2022-11-28T19:24:08.042Z,96693.03
2022-11-28T19:26:35.435Z,96688.06
2022-11-28T19:29:05.296Z,96690.38
2022-11-28T19:31:37.021Z,96690.00
2022-11-28T19:34:08.673Z,96693.88
2022-11-28T19:36:40.750Z,96698.50
2022-11-28T19:39:22.263Z,96701.66
2022-11-28T19:41:55.257Z,96696.66
2022-11-28T19:44:24.831Z,96706.66
2022-11-28T19:46:53.505Z,96700.53
2022-11-28T19:49:22.942Z,96710.19
2022-11-28T19:51:50.389Z,96706.38
2022-11-28T19:54:21.426Z,96711.78
2022-11-28T19:56:48.791Z,96705.25
2022-11-28T19:59:18.015Z,96710.28
2022-11-28T20:01:49.048Z,96719.16
2022-11-28T20:04:16.218Z,96716.09
2022-11-28T20:06:47.636Z,96713.41
2022-11-28T20:09:14.232Z,96716.88
2022-11-28T20:11:42.844Z,96711.88
2022-11-28T20:14:14.995Z,96713.41
2022-11-28T20:16:41.742Z,96713.41
2022-11-28T20:19:08.344Z,96716.44
2022-11-28T20:21:37.545Z,96726.47
2022-11-28T20:24:08.577Z,96720.34
2022-11-28T20:26:40.508Z,96731.13
2022-11-28T20:29:08.044Z,96723.44
2022-11-28T20:31:37.571Z,96720.72
2022-11-28T20:34:04.561Z,96728.06
2022-11-28T20:36:33.646Z,96732.69
2022-11-28T20:39:05.356Z,96729.97
2022-11-28T20:41:34.335Z,96732.69
2022-11-28T20:44:03.243Z,96732.31
2022-11-28T20:46:32.340Z,96733.44
2022-11-28T20:49:00.860Z,96738.47
2022-11-28T20:51:29.694Z,96741.94
2022-11-28T20:54:02.975Z,96739.25
2022-11-28T20:56:31.823Z,96740.03
2022-11-28T20:59:00.672Z,96740.41
2022-11-28T21:01:33.180Z,96741.19
2022-11-28T21:04:01.377Z,96735.41
2022-11-28T21:06:31.172Z,96738.88
2022-11-28T21:09:00.096Z,96739.66
2022-11-28T21:11:56.382Z,96734.25
2022-11-28T21:14:18.825Z,96727.69
2022-11-28T21:16:50.367Z,96732.69
2022-11-28T21:19:16.953Z,96732.31
2022-11-28T21:21:43.667Z,96729.97
2022-11-28T21:24:16.232Z,96734.22
2022-11-28T21:26:51.411Z,96740.78
2022-11-28T21:29:23.527Z,96734.97
2022-11-28T21:31:55.033Z,96731.84
2022-11-28T21:34:24.648Z,96734.16
2022-11-28T21:36:51.280Z,96727.59
2022-11-28T21:39:20.391Z,96735.69
2022-11-28T21:41:50.993Z,96736.06
2022-11-28T21:44:17.884Z,96733.75
2022-11-28T21:46:44.641Z,96741.84
2022-11-28T21:49:11.385Z,96746.84
2022-11-28T21:51:41.014Z,96740.69
2022-11-28T21:54:09.800Z,96745.69
2022-11-28T21:56:38.683Z,96747.94
2022-11-28T21:59:07.487Z,96747.94
2022-11-28T22:01:36.615Z,96751.03
2022-11-28T22:04:06.200Z,96752.56
2022-11-28T22:06:33.636Z,96751.41
2022-11-28T22:09:08.367Z,96752.94
2022-11-28T22:11:38.957Z,96756.75
2022-11-28T22:14:08.614Z,96760.22
2022-11-28T22:16:37.358Z,96754.06
2022-11-28T22:19:05.001Z,96760.22
2022-11-28T22:24:18.294Z,96759.06
2022-11-28T22:26:44.822Z,96755.59
2022-11-28T22:29:13.658Z,96756.00
2022-11-28T22:31:40.287Z,96757.53
2022-11-28T22:34:11.207Z,96756.00
2022-11-28T22:36:40.026Z,96753.69
2022-11-28T22:39:12.501Z,96755.63
2022-11-28T22:41:39.363Z,96763.03
2022-11-28T22:44:08.163Z,96758.03
2022-11-28T22:46:34.705Z,96757.63
2022-11-28T22:49:02.094Z,96764.91
2022-11-28T22:51:31.620Z,96760.69
2022-11-28T22:54:02.485Z,96763.41
2022-11-28T22:56:33.861Z,96763.75
2022-11-28T22:59:01.083Z,96769.94
2022-11-28T23:01:32.174Z,96763.41
2022-11-28T23:04:02.116Z,96762.28
2022-11-28T23:06:31.393Z,96764.97
2022-11-28T23:09:00.176Z,96763.03
2022-11-28T23:11:29.122Z,96766.13
2022-11-28T23:14:01.050Z,96769.22
2022-11-28T23:16:32.864Z,96773.50
2022-11-28T23:19:07.266Z,96777.34
2022-11-28T23:21:39.409Z,96776.59
2022-11-28T23:24:07.722Z,96771.97
2022-11-28T23:26:35.111Z,96767.75
2022-11-28T23:29:04.710Z,96771.59
2022-11-28T23:31:35.506Z,96768.91
2022-11-28T23:34:02.345Z,96770.44
2022-11-28T23:36:41.806Z,96770.84
2022-11-28T23:39:20.502Z,96774.69
2022-11-28T23:41:47.876Z,96763.16
2022-11-28T23:44:15.986Z,96769.72
2022-11-28T23:46:45.844Z,96762.06
2022-11-28T23:49:12.843Z,96766.31
2022-11-28T23:51:44.343Z,96763.22
2022-11-28T23:54:11.847Z,96758.97
2022-11-28T23:56:44.262Z,96752.44
2022-11-28T23:59:14.549Z,96753.97
